createdAt,value
2017-12-29T13:50:51.190Z,19.90
2017-12-29T13:57:40.082Z,20.20
2017-12-29T14:01:03.612Z,20.20
2017-12-29T14:04:27.118Z,20.30
2017-12-29T14:07:50.609Z,20.30
2017-12-29T14:11:14.086Z,20.20
2017-12-29T14:14:37.594Z,20.20
2017-12-29T14:18:01.067Z,20.20
2017-12-29T14:21:25.301Z,20.20
2017-12-29T14:24:48.937Z,20.20
2017-12-29T14:28:13.199Z,20.20
2017-12-29T14:31:36.660Z,20.20
2017-12-29T14:35:00.162Z,20.20
2017-12-29T14:38:24.538Z,20.20
2017-12-29T14:41:48.036Z,20.20
2017-12-29T14:45:11.673Z,20.20
2017-12-29T14:48:35.408Z,20.10
2017-12-29T14:51:58.860Z,20.10
2017-12-29T14:55:23.277Z,20.10
2017-12-29T14:58:46.729Z,20.10
2017-12-29T15:02:10.223Z,20.10
2017-12-29T15:05:33.679Z,20.10
2017-12-29T15:08:57.941Z,20.10
2017-12-29T15:12:22.010Z,20.10
2017-12-29T15:15:45.494Z,20.10
2017-12-29T15:19:09.125Z,20.10
2017-12-29T15:22:32.621Z,20.10
2017-12-29T15:25:56.114Z,20.10
2017-12-29T15:29:19.637Z,20.00
2017-12-29T15:32:43.148Z,20.00
2017-12-29T15:36:06.636Z,20.10
2017-12-29T15:39:30.107Z,20.10
2017-12-29T15:42:54.400Z,20.10
2017-12-29T15:46:18.649Z,20.10
2017-12-29T15:49:42.152Z,20.10
2017-12-29T15:53:05.613Z,20.10
2017-12-29T15:56:29.251Z,20.10
2017-12-29T15:59:53.462Z,20.10
2017-12-29T16:03:16.921Z,20.10
2017-12-29T16:06:40.429Z,20.10
2017-12-29T16:10:03.891Z,20.10
2017-12-29T16:13:27.456Z,20.10
2017-12-29T16:16:50.963Z,20.10
2017-12-29T16:20:14.453Z,20.10
2017-12-29T16:23:38.719Z,20.10
2017-12-29T16:27:03.022Z,20.00
2017-12-29T16:30:26.555Z,20.00
2017-12-29T16:33:50.043Z,20.00
2017-12-29T16:37:13.520Z,20.00
2017-12-29T16:40:37.095Z,20.00
2017-12-29T16:44:00.573Z,20.00
2017-12-29T16:47:25.698Z,20.00
2017-12-29T16:50:49.948Z,20.00
2017-12-29T16:54:13.629Z,20.00
2017-12-29T16:57:37.096Z,20.00
2017-12-29T17:01:00.527Z,20.00
2017-12-29T17:04:24.811Z,20.00
2017-12-29T17:07:48.322Z,20.00
2017-12-29T17:11:12.620Z,20.00
2017-12-29T17:14:36.142Z,20.00
2017-12-29T17:18:00.383Z,20.00
2017-12-29T17:21:23.883Z,20.00
2017-12-29T17:24:47.367Z,20.00
2017-12-29T17:32:04.779Z,20.00
2017-12-29T17:35:29.027Z,20.00
2017-12-29T17:38:53.318Z,20.00
2017-12-29T17:42:16.846Z,20.00
2017-12-29T17:45:40.335Z,20.00
2017-12-29T17:52:57.000Z,20.00
2017-12-29T17:56:21.264Z,20.00
2017-12-29T17:59:44.762Z,20.00
2017-12-29T18:03:09.027Z,20.00
2017-12-29T18:06:32.527Z,20.00
2017-12-29T18:09:56.779Z,20.00
2017-12-29T18:13:20.313Z,20.00
2017-12-29T18:16:43.866Z,20.10
2017-12-29T18:20:07.384Z,20.10
2017-12-29T18:23:30.838Z,20.00
2017-12-29T18:26:54.356Z,20.10
2017-12-29T18:30:17.878Z,20.00
2017-12-29T18:33:41.486Z,20.00
2017-12-29T18:37:05.114Z,20.00
2017-12-29T18:40:29.367Z,20.00
2017-12-29T18:43:52.934Z,20.00
2017-12-29T18:47:16.426Z,20.00
2017-12-29T18:50:39.903Z,20.00
2017-12-29T18:54:03.660Z,20.00
2017-12-29T18:57:27.170Z,20.00
2017-12-29T19:00:51.430Z,20.00
2017-12-29T19:04:14.929Z,19.90
2017-12-29T19:07:39.234Z,20.00
2017-12-29T19:11:02.728Z,19.90
2017-12-29T19:14:26.286Z,20.00
2017-12-29T19:17:49.985Z,20.00
2017-12-29T19:21:13.567Z,20.00
2017-12-29T19:24:37.586Z,20.00
2017-12-29T19:28:01.113Z,20.00
2017-12-29T19:31:24.703Z,20.00
2017-12-29T19:34:48.193Z,20.00
2017-12-29T19:38:12.024Z,19.90
2017-12-29T19:41:35.761Z,19.90
2017-12-29T19:44:59.473Z,19.90
2017-12-29T19:48:24.009Z,19.80
2017-12-29T19:51:47.749Z,19.80
2017-12-29T19:55:11.945Z,19.80
2017-12-29T19:58:35.784Z,19.90
2017-12-29T20:01:59.647Z,19.90
2017-12-29T20:05:23.501Z,19.90
2017-12-29T20:08:47.330Z,19.90
2017-12-29T20:12:11.724Z,19.90
2017-12-29T20:19:00.491Z,19.90
2017-12-29T20:25:48.959Z,20.10
2017-12-29T20:29:12.606Z,20.00
2017-12-29T20:32:36.230Z,20.00
2017-12-29T20:36:00.053Z,20.00
2017-12-29T20:39:23.670Z,20.00
2017-12-29T20:42:47.452Z,19.90
2017-12-29T20:46:11.276Z,20.00
2017-12-29T20:49:34.883Z,19.90
2017-12-29T20:52:58.542Z,19.90
2017-12-29T20:56:22.162Z,19.90
2017-12-29T20:59:45.803Z,19.90
2017-12-29T21:03:09.407Z,19.90
2017-12-29T21:06:33.212Z,20.00
2017-12-29T21:09:57.007Z,20.00
2017-12-29T21:13:21.656Z,20.00
2017-12-29T21:16:45.361Z,20.00
2017-12-29T21:20:10.105Z,19.90
2017-12-29T21:23:33.779Z,19.90
2017-12-29T21:26:57.426Z,19.80
2017-12-29T21:30:21.876Z,19.80
2017-12-29T21:33:46.407Z,19.70
2017-12-29T21:37:10.124Z,19.70
2017-12-29T21:40:33.775Z,19.60
2017-12-29T21:43:57.225Z,19.60
2017-12-29T21:47:20.786Z,19.60
2017-12-29T21:50:44.303Z,19.50
2017-12-29T21:54:08.593Z,19.40
2017-12-29T21:57:32.828Z,19.40
2017-12-29T22:00:56.334Z,19.40
2017-12-29T22:04:19.815Z,19.30
2017-12-29T22:07:44.228Z,19.30
2017-12-29T22:11:08.471Z,19.20
2017-12-29T22:14:32.017Z,19.20
2017-12-29T22:17:55.480Z,19.20
2017-12-29T22:21:18.960Z,19.20
2017-12-29T22:24:42.477Z,19.10
2017-12-29T22:28:05.928Z,19.10
2017-12-29T22:31:29.504Z,19.10
2017-12-29T22:34:52.974Z,19.00
2017-12-29T22:38:16.435Z,19.00
2017-12-29T22:41:39.926Z,18.90
2017-12-29T22:45:03.456Z,18.90
2017-12-29T22:48:26.926Z,18.90
2017-12-29T22:51:50.498Z,18.80
2017-12-29T22:55:14.100Z,18.80
2017-12-29T22:58:37.595Z,18.80
2017-12-29T23:02:01.073Z,18.70
2017-12-29T23:05:24.553Z,18.70
2017-12-29T23:08:48.890Z,18.70
2017-12-29T23:12:12.374Z,18.60
2017-12-29T23:15:36.701Z,18.60
2017-12-29T23:19:00.212Z,18.60
2017-12-29T23:22:23.699Z,18.60
2017-12-29T23:25:47.133Z,18.60
2017-12-29T23:29:11.466Z,18.50
2017-12-29T23:32:34.963Z,18.50
2017-12-29T23:35:58.430Z,18.50
2017-12-29T23:39:21.934Z,18.50
2017-12-29T23:42:46.277Z,18.50
2017-12-29T23:46:09.738Z,18.40
2017-12-29T23:49:33.259Z,18.40
2017-12-29T23:52:56.746Z,18.40
2017-12-29T23:56:20.546Z,18.40
2017-12-29T23:59:44.114Z,18.40
